Time,TemperatureF,DewpointF,PressureIn,WindDirection,WindDirectionDegrees,WindSpeedMPH,WindSpeedGustMPH,Humidity,HourlyPrecipIn,Conditions,Clouds,dailyrainin,SoftwareType,DateUTC
2013-02-24 00:01:00,69.0,69.0,29.95,SW,226,6.0,8.0,100,0.48,,,-99.99,,2013-02-24 05:01:00,
2013-02-24 00:11:00,69.0,69.0,29.94,SW,225,6.0,9.0,100,0.48,,,-99.99,,2013-02-24 05:11:00,
2013-02-24 00:22:00,69.0,69.0,29.94,SW,225,6.0,9.0,100,0.48,,,-99.99,,2013-02-24 05:22:00,
2013-02-24 00:32:00,69.0,69.0,29.93,SSW,205,8.0,12.0,100,0.48,,,-99.99,,2013-02-24 05:32:00,
2013-02-24 00:42:00,69.0,69.0,29.94,SW,224,6.0,10.0,100,0.48,,,-99.99,,2013-02-24 05:42:00,
2013-02-24 00:52:00,69.0,69.0,29.94,SW,224,6.0,10.0,100,0.48,,,-99.99,,2013-02-24 05:52:00,
2013-02-24 01:02:00,69.0,69.0,29.94,SW,226,7.0,9.0,100,0.48,,,-99.99,,2013-02-24 06:02:00,
2013-02-24 01:11:00,69.0,69.0,29.94,SW,226,7.0,9.0,100,0.48,,,-99.99,,2013-02-24 06:11:00,
2013-02-24 01:21:00,69.0,69.0,29.93,SW,215,5.0,8.0,100,0.48,,,-99.99,,2013-02-24 06:21:00,
2013-02-24 01:32:00,68.0,68.0,29.93,SSW,211,7.0,11.0,100,0.48,,,-99.99,,2013-02-24 06:32:00,
2013-02-24 01:42:00,68.0,68.0,29.93,SSW,211,7.0,11.0,100,0.48,,,-99.99,,2013-02-24 06:42:00,
2013-02-24 01:52:00,68.0,68.0,29.93,SW,218,8.0,11.0,100,0.48,,,-99.99,,2013-02-24 06:52:00,
2013-02-24 02:01:00,68.0,68.0,29.92,SSW,211,8.0,12.0,100,0.48,,,-99.99,,2013-02-24 07:01:00,
2013-02-24 02:12:00,68.0,68.0,29.92,SSW,211,8.0,12.0,100,0.48,,,-99.99,,2013-02-24 07:12:00,
2013-02-24 02:21:00,68.0,68.0,29.92,SSW,205,7.0,11.0,100,0.48,,,-99.99,,2013-02-24 07:21:00,
2013-02-24 02:32:00,68.0,68.0,29.91,SSW,211,9.0,13.0,100,0.48,,,-99.99,,2013-02-24 07:32:00,
2013-02-24 02:42:00,68.0,68.0,29.91,SSW,211,9.0,13.0,100,0.48,,,-99.99,,2013-02-24 07:42:00,
2013-02-24 02:52:00,68.0,68.0,29.91,SSW,207,8.0,12.0,100,0.48,,,-99.99,,2013-02-24 07:52:00,
2013-02-24 03:01:00,68.0,68.0,29.91,SW,219,9.0,14.0,100,0.48,,,-99.99,,2013-02-24 08:01:00,
2013-02-24 03:11:00,68.0,68.0,29.91,SW,231,10.0,14.0,100,0.48,,,-99.99,,2013-02-24 08:11:00,
2013-02-24 03:22:00,68.0,68.0,29.91,SW,231,10.0,14.0,100,0.48,,,-99.99,,2013-02-24 08:22:00,
2013-02-24 03:32:00,68.0,68.0,29.91,SW,226,9.0,12.0,100,0.48,,,-99.99,,2013-02-24 08:32:00,
2013-02-24 03:42:00,68.0,68.0,29.91,SW,226,9.0,12.0,100,0.48,,,-99.99,,2013-02-24 08:42:00,
2013-02-24 03:54:00,68.0,68.0,29.91,WSW,255,9.0,12.0,100,0.48,,,-99.99,,2013-02-24 08:54:00,
2013-02-24 04:01:00,68.0,68.0,29.91,WSW,243,8.0,10.0,100,0.48,,,-99.99,,2013-02-24 09:01:00,
2013-02-24 04:11:00,68.0,68.0,29.91,WSW,243,8.0,10.0,100,0.48,,,-99.99,,2013-02-24 09:11:00,
2013-02-24 04:21:00,69.0,69.0,29.90,WSW,243,7.0,10.0,100,0.48,,,-99.99,,2013-02-24 09:21:00,
2013-02-24 04:31:00,69.0,69.0,29.89,SSW,207,10.0,13.0,100,0.48,,,-99.99,,2013-02-24 09:31:00,
2013-02-24 04:42:00,69.0,69.0,29.89,SSW,207,10.0,13.0,100,0.48,,,-99.99,,2013-02-24 09:42:00,
2013-02-24 04:52:00,69.0,69.0,29.88,SSW,193,10.0,13.0,100,0.48,,,-99.99,,2013-02-24 09:52:00,
2013-02-24 05:01:00,68.0,68.0,29.89,South,188,9.0,12.0,100,0.48,,,-99.99,,2013-02-24 10:01:00,
2013-02-24 05:11:00,68.0,68.0,29.89,SSW,211,9.0,12.0,100,0.48,,,-99.99,,2013-02-24 10:11:00,
2013-02-24 05:21:00,68.0,68.0,29.89,SSW,211,9.0,12.0,100,0.48,,,-99.99,,2013-02-24 10:21:00,
2013-02-24 05:32:00,68.0,68.0,29.91,SW,221,7.0,10.0,100,0.48,,,-99.99,,2013-02-24 10:32:00,
2013-02-24 05:41:00,68.0,68.0,29.91,SW,221,7.0,10.0,100,0.48,,,-99.99,,2013-02-24 10:41:00,
2013-02-24 05:52:00,68.0,68.0,29.91,West,266,6.0,9.0,100,0.48,,,-99.99,,2013-02-24 10:52:00,
2013-02-24 06:01:00,68.0,68.0,29.91,West,260,7.0,10.0,100,0.48,,,-99.99,,2013-02-24 11:01:00,
2013-02-24 06:11:00,68.0,68.0,29.91,West,260,7.0,10.0,100,0.48,,,-99.99,,2013-02-24 11:11:00,
2013-02-24 06:22:00,68.0,68.0,29.92,SW,235,7.0,9.0,100,0.48,,,-99.99,,2013-02-24 11:22:00,
2013-02-24 06:32:00,68.0,68.0,29.93,WSW,256,7.0,9.0,100,0.48,,,-99.99,,2013-02-24 11:32:00,
2013-02-24 06:42:00,68.0,68.0,29.93,WSW,256,7.0,9.0,100,0.48,,,-99.99,,2013-02-24 11:42:00,
2013-02-24 06:52:00,68.0,68.0,29.93,West,271,8.0,11.0,100,0.48,,,-99.99,,2013-02-24 11:52:00,
2013-02-24 07:02:00,69.0,69.0,29.94,SW,236,8.0,10.0,100,0.48,,,-99.99,,2013-02-24 12:02:00,
2013-02-24 07:11:00,69.0,69.0,29.94,SW,236,8.0,10.0,100,0.48,,,-99.99,,2013-02-24 12:11:00,
2013-02-24 07:22:00,69.0,69.0,29.95,West,267,7.0,9.0,100,0.48,,,-99.99,,2013-02-24 12:22:00,
2013-02-24 07:32:00,69.0,69.0,29.95,WSW,245,7.0,9.0,100,0.48,,,-99.99,,2013-02-24 12:32:00,
2013-02-24 07:46:00,69.0,69.0,29.95,WSW,245,7.0,9.0,100,0.48,,,-99.99,,2013-02-24 12:46:00,
2013-02-24 08:17:00,68.0,68.0,29.96,SSW,205,9.0,12.0,100,0.48,,,-99.99,,2013-02-24 13:17:00,
2013-02-24 08:26:00,68.0,68.0,29.96,SSW,205,9.0,12.0,100,0.48,,,-99.99,,2013-02-24 13:26:00,
2013-02-24 08:34:00,68.0,68.0,29.96,SSW,193,8.0,11.0,100,0.48,,,-99.99,,2013-02-24 13:34:00,
2013-02-24 08:44:00,68.0,68.0,29.96,SSW,193,8.0,11.0,100,0.48,,,-99.99,,2013-02-24 13:44:00,
2013-02-24 08:55:00,69.0,69.0,29.96,SSW,204,10.0,13.0,100,0.48,,,-99.99,,2013-02-24 13:55:00,
2013-02-24 09:04:00,69.0,69.0,29.96,SSW,198,9.0,13.0,100,0.48,,,-99.99,,2013-02-24 14:04:00,
2013-02-24 09:14:00,71.0,70.0,29.96,SW,224,8.0,11.0,97,0.48,,,-99.99,,2013-02-24 14:14:00,
2013-02-24 09:25:00,71.0,70.0,29.96,SW,224,8.0,11.0,97,0.48,,,-99.99,,2013-02-24 14:25:00,
2013-02-24 09:34:00,71.0,66.0,29.96,SW,214,11.0,14.0,84,0.48,,,-99.99,,2013-02-24 14:34:00,
2013-02-24 09:54:00,73.0,65.0,29.96,South,191,8.0,11.0,75,0.48,,,-99.99,,2013-02-24 14:54:00,
2013-02-24 10:03:00,74.0,65.0,29.96,SSW,200,9.0,12.0,74,0.48,,,-99.99,,2013-02-24 15:03:00,
2013-02-24 10:13:00,76.0,66.0,29.96,SW,214,9.0,14.0,72,0.48,,,-99.99,,2013-02-24 15:13:00,
2013-02-24 10:32:00,77.0,66.0,29.96,WSW,252,12.0,18.0,69,0.48,,,-99.99,,2013-02-24 15:32:00,
2013-02-24 10:42:00,77.0,66.0,29.96,WSW,252,12.0,18.0,69,0.48,,,-99.99,,2013-02-24 15:42:00,
2013-02-24 10:53:00,77.0,66.0,29.97,WSW,252,10.0,13.0,69,0.48,,,-99.99,,2013-02-24 15:53:00,
2013-02-24 11:01:00,78.0,67.0,29.97,WSW,256,8.0,12.0,68,0.48,,,-99.99,,2013-02-24 16:01:00,
2013-02-24 11:11:00,79.0,67.0,29.97,West,262,10.0,13.0,67,0.48,,,-99.99,,2013-02-24 16:11:00,
2013-02-24 11:21:00,79.0,67.0,29.97,West,262,10.0,13.0,67,0.48,,,-99.99,,2013-02-24 16:21:00,
2013-02-24 11:32:00,79.0,67.0,29.96,WSW,249,10.0,14.0,66,0.48,,,-99.99,,2013-02-24 16:32:00,
2013-02-24 11:42:00,79.0,67.0,29.96,WSW,249,10.0,14.0,66,0.48,,,-99.99,,2013-02-24 16:42:00,
2013-02-24 11:52:00,80.0,67.0,29.96,WSW,240,9.0,13.0,65,0.48,,,-99.99,,2013-02-24 16:52:00,
2013-02-24 12:01:00,80.0,67.0,29.96,WSW,246,7.0,10.0,65,0.48,,,-99.99,,2013-02-24 17:01:00,
2013-02-24 12:11:00,80.0,67.0,29.96,WSW,246,7.0,10.0,65,0.48,,,-99.99,,2013-02-24 17:11:00,
2013-02-24 12:21:00,80.0,66.0,29.95,WNW,288,6.0,10.0,63,0.48,,,-99.99,,2013-02-24 17:21:00,
2013-02-24 12:32:00,79.0,67.0,29.94,NW,308,7.0,10.0,66,0.48,,,-99.99,,2013-02-24 17:32:00,
2013-02-24 12:42:00,79.0,67.0,29.94,NW,308,7.0,10.0,66,0.48,,,-99.99,,2013-02-24 17:42:00,
2013-02-24 12:53:00,80.0,67.0,29.94,WNW,283,6.0,10.0,64,0.48,,,-99.99,,2013-02-24 17:53:00,
2013-02-24 13:02:00,81.0,65.0,29.94,WSW,238,10.0,14.0,58,0.48,,,-99.99,,2013-02-24 18:02:00,
2013-02-24 13:11:00,81.0,65.0,29.94,WSW,238,10.0,14.0,58,0.48,,,-99.99,,2013-02-24 18:11:00,
2013-02-24 13:22:00,77.0,67.0,29.94,NNW,342,9.0,13.0,72,0.48,,,-99.99,,2013-02-24 18:22:00,
2013-02-24 13:32:00,77.0,67.0,29.94,NW,318,8.0,12.0,71,0.48,,,-99.99,,2013-02-24 18:32:00,
2013-02-24 13:42:00,77.0,67.0,29.94,NW,318,8.0,12.0,71,0.48,,,-99.99,,2013-02-24 18:42:00,
2013-02-24 13:52:00,77.0,67.0,29.94,NNW,332,9.0,13.0,71,0.48,,,-99.99,,2013-02-24 18:52:00,
2013-02-24 14:01:00,77.0,67.0,29.93,NNW,328,8.0,11.0,71,0.48,,,-99.99,,2013-02-24 19:01:00,
2013-02-24 14:11:00,77.0,67.0,29.93,NNW,328,8.0,11.0,71,0.48,,,-99.99,,2013-02-24 19:11:00,
2013-02-24 14:22:00,77.0,66.0,29.93,NNW,338,7.0,10.0,70,0.48,,,-99.99,,2013-02-24 19:22:00,
2013-02-24 14:32:00,77.0,66.0,29.92,North,350,7.0,10.0,70,0.48,,,-99.99,,2013-02-24 19:32:00,
2013-02-24 14:42:00,77.0,66.0,29.92,North,350,7.0,10.0,70,0.48,,,-99.99,,2013-02-24 19:42:00,
2013-02-24 14:52:00,77.0,66.0,29.92,NNW,338,8.0,11.0,70,0.48,,,-99.99,,2013-02-24 19:52:00,
2013-02-24 15:02:00,77.0,66.0,29.91,NNW,333,10.0,18.0,68,0.48,,,-99.99,,2013-02-24 20:02:00,
2013-02-24 15:11:00,77.0,66.0,29.91,NNW,333,10.0,18.0,68,0.48,,,-99.99,,2013-02-24 20:11:00,
2013-02-24 15:21:00,78.0,67.0,29.91,NW,326,10.0,14.0,68,0.48,,,-99.99,,2013-02-24 20:21:00,
2013-02-24 15:32:00,78.0,67.0,29.92,NW,323,9.0,14.0,68,0.48,,,-99.99,,2013-02-24 20:32:00,
2013-02-24 15:42:00,77.0,66.0,29.92,NNW,328,10.0,15.0,70,0.48,,,-99.99,,2013-02-24 20:42:00,
2013-02-24 15:52:00,77.0,66.0,29.92,NNW,328,10.0,15.0,70,0.48,,,-99.99,,2013-02-24 20:52:00,
2013-02-24 16:02:00,77.0,66.0,29.91,North,3,7.0,11.0,70,0.48,,,-99.99,,2013-02-24 21:02:00,
2013-02-24 16:11:00,77.0,66.0,29.91,North,3,7.0,11.0,70,0.48,,,-99.99,,2013-02-24 21:11:00,
2013-02-24 16:21:00,77.0,66.0,29.91,NNW,332,8.0,11.0,70,0.48,,,-99.99,,2013-02-24 21:21:00,
2013-02-24 16:32:00,77.0,66.0,29.91,NNW,332,9.0,13.0,70,0.48,,,-99.99,,2013-02-24 21:32:00,
2013-02-24 16:42:00,77.0,66.0,29.91,NNW,332,9.0,13.0,70,0.48,,,-99.99,,2013-02-24 21:42:00,
2013-02-24 16:52:00,76.0,66.0,29.91,NNW,340,9.0,12.0,71,0.48,,,-99.99,,2013-02-24 21:52:00,
2013-02-24 17:01:00,76.0,66.0,29.91,NNW,329,7.0,12.0,71,0.48,,,-99.99,,2013-02-24 22:01:00,
2013-02-24 17:11:00,76.0,66.0,29.91,NNW,329,7.0,12.0,71,0.48,,,-99.99,,2013-02-24 22:11:00,
2013-02-24 17:21:00,76.0,66.0,29.92,NNW,346,7.0,10.0,72,0.48,,,-99.99,,2013-02-24 22:21:00,
2013-02-24 17:32:00,76.0,66.0,29.92,North,356,6.0,9.0,72,0.48,,,-99.99,,2013-02-24 22:32:00,
2013-02-24 17:42:00,76.0,66.0,29.92,North,356,6.0,9.0,72,0.48,,,-99.99,,2013-02-24 22:42:00,
2013-02-24 17:52:00,75.0,65.0,29.92,North,1,4.0,7.0,72,0.48,,,-99.99,,2013-02-24 22:52:00,
2013-02-24 18:02:00,75.0,65.0,29.92,North,352,2.0,4.0,72,0.48,,,-99.99,,2013-02-24 23:02:00,
2013-02-24 18:11:00,75.0,65.0,29.92,North,352,2.0,4.0,72,0.48,,,-99.99,,2013-02-24 23:11:00,
2013-02-24 18:21:00,75.0,65.0,29.92,North,356,1.0,3.0,72,0.48,,,-99.99,,2013-02-24 23:21:00,
2013-02-24 18:32:00,75.0,66.0,29.91,ENE,72,1.0,3.0,73,0.48,,,-99.99,,2013-02-24 23:32:00,
2013-02-24 18:42:00,75.0,66.0,29.91,ENE,72,1.0,3.0,73,0.48,,,-99.99,,2013-02-24 23:42:00,
2013-02-24 18:52:00,74.0,65.0,29.92,ENE,76,1.0,3.0,73,0.48,,,-99.99,,2013-02-24 23:52:00,
2013-02-24 19:01:00,73.0,64.0,29.93,ENE,77,2.0,5.0,74,0.48,,,-99.99,,2013-02-25 00:01:00,
2013-02-24 19:11:00,73.0,64.0,29.93,ENE,77,2.0,5.0,74,0.48,,,-99.99,,2013-02-25 00:11:00,
2013-02-24 19:21:00,73.0,65.0,29.93,NE,51,4.0,5.0,77,0.48,,,-99.99,,2013-02-25 00:21:00,
2013-02-24 19:32:00,73.0,66.0,29.93,East,79,4.0,5.0,79,0.48,,,-99.99,,2013-02-25 00:32:00,
2013-02-24 19:42:00,73.0,66.0,29.93,East,79,4.0,5.0,79,0.48,,,-99.99,,2013-02-25 00:42:00,
2013-02-24 19:52:00,72.0,66.0,29.94,East,79,4.0,6.0,81,0.48,,,-99.99,,2013-02-25 00:52:00,
2013-02-24 20:01:00,72.0,67.0,29.95,ENE,73,3.0,5.0,83,0.48,,,-99.99,,2013-02-25 01:01:00,
2013-02-24 20:11:00,72.0,67.0,29.96,NE,56,3.0,4.0,83,0.48,,,-99.99,,2013-02-25 01:11:00,
2013-02-24 20:21:00,72.0,67.0,29.96,NE,56,3.0,4.0,83,0.48,,,-99.99,,2013-02-25 01:21:00,
2013-02-24 20:32:00,72.0,67.0,29.95,ENE,68,5.0,7.0,84,0.48,,,-99.99,,2013-02-25 01:32:00,
2013-02-24 20:42:00,72.0,67.0,29.95,ENE,68,5.0,7.0,84,0.48,,,-99.99,,2013-02-25 01:42:00,
2013-02-24 20:52:00,71.0,67.0,29.96,ENE,70,6.0,9.0,88,0.48,,,-99.99,,2013-02-25 01:52:00,
2013-02-24 21:01:00,71.0,68.0,29.96,East,80,8.0,12.0,91,0.48,,,-99.99,,2013-02-25 02:01:00,
2013-02-24 21:11:00,70.0,67.0,29.97,East,80,10.0,13.0,90,0.48,,,-99.99,,2013-02-25 02:11:00,
2013-02-24 21:21:00,70.0,67.0,29.97,East,80,10.0,13.0,90,0.48,,,-99.99,,2013-02-25 02:21:00,
2013-02-24 21:32:00,69.0,67.0,29.96,ESE,103,8.0,10.0,92,0.48,,,-99.99,,2013-02-25 02:32:00,
2013-02-24 21:42:00,69.0,67.0,29.96,ESE,103,8.0,10.0,92,0.48,,,-99.99,,2013-02-25 02:42:00,
2013-02-24 21:52:00,69.0,68.0,29.96,ENE,75,8.0,10.0,95,0.48,,,-99.99,,2013-02-25 02:52:00,
2013-02-24 22:01:00,68.0,67.0,29.95,East,89,8.0,12.0,97,0.48,,,-99.99,,2013-02-25 03:01:00,
2013-02-24 22:11:00,68.0,67.0,29.95,East,89,8.0,12.0,97,0.48,,,-99.99,,2013-02-25 03:11:00,
2013-02-24 22:21:00,68.0,68.0,29.96,East,90,8.0,12.0,100,0.48,,,-99.99,,2013-02-25 03:21:00,
2013-02-24 22:32:00,67.0,67.0,29.95,East,98,7.0,10.0,100,0.48,,,-99.99,,2013-02-25 03:32:00,
2013-02-24 22:42:00,67.0,67.0,29.95,East,98,7.0,10.0,100,0.48,,,-99.99,,2013-02-25 03:42:00,
2013-02-24 22:52:00,67.0,67.0,29.94,East,94,8.0,11.0,100,0.48,,,-99.99,,2013-02-25 03:52:00,
2013-02-24 23:02:00,67.0,67.0,29.94,East,97,7.0,10.0,100,0.48,,,-99.99,,2013-02-25 04:02:00,
2013-02-24 23:11:00,67.0,67.0,29.94,East,97,7.0,10.0,100,0.48,,,-99.99,,2013-02-25 04:11:00,
2013-02-24 23:21:00,67.0,67.0,29.93,East,87,8.0,11.0,100,0.48,,,-99.99,,2013-02-25 04:21:00,
2013-02-24 23:32:00,67.0,67.0,29.93,East,93,7.0,10.0,100,0.48,,,-99.99,,2013-02-25 04:32:00,
2013-02-24 23:42:00,67.0,67.0,29.93,East,93,7.0,10.0,100,0.48,,,-99.99,,2013-02-25 04:42:00,
2013-02-24 23:52:00,67.0,67.0,29.93,East,97,6.0,9.0,100,0.48,,,-99.99,,2013-02-25 04:52:00,